createdAt,value
2018-07-20T14:24:52.346Z,31.00
2018-07-20T14:25:26.324Z,31.00
2018-07-20T14:26:01.428Z,31.00
2018-07-20T14:26:35.328Z,30.90
2018-07-20T14:27:09.071Z,30.90
2018-07-20T14:27:42.923Z,30.90
2018-07-20T14:28:16.709Z,30.90
2018-07-20T14:28:50.508Z,30.90
2018-07-20T14:29:24.263Z,30.90
2018-07-20T14:29:58.315Z,30.90
2018-07-20T14:30:32.088Z,31.00
2018-07-20T14:31:06.054Z,31.00
2018-07-20T14:32:14.652Z,31.10
2018-07-20T14:32:48.604Z,31.10
2018-07-20T14:33:22.346Z,31.00
2018-07-20T14:33:56.593Z,30.90
2018-07-20T14:34:30.275Z,30.80
2018-07-20T14:35:04.539Z,30.80
2018-07-20T14:35:38.515Z,30.80
2018-07-20T14:36:12.752Z,30.80
2018-07-20T14:36:46.484Z,30.70
2018-07-20T14:37:20.237Z,30.60
2018-07-20T14:37:54.212Z,30.70
2018-07-20T14:38:27.970Z,30.70
2018-07-20T14:39:35.668Z,30.70
2018-07-20T14:40:09.701Z,30.80
2018-07-20T14:40:43.669Z,30.80
2018-07-20T14:41:51.427Z,30.80
2018-07-20T14:42:25.362Z,30.80
2018-07-20T14:42:59.503Z,30.80
2018-07-20T14:43:33.435Z,30.70
2018-07-20T14:44:07.451Z,30.70
2018-07-20T14:44:41.245Z,30.70
2018-07-20T14:45:15.076Z,30.60
2018-07-20T14:45:48.927Z,30.60
2018-07-20T14:46:22.688Z,30.60
2018-07-20T14:46:56.611Z,30.70
2018-07-20T14:47:30.250Z,30.70
2018-07-20T14:48:04.268Z,30.80
2018-07-20T14:48:38.090Z,30.80
2018-07-20T14:49:12.027Z,30.80
2018-07-20T14:50:19.416Z,30.70
2018-07-20T14:51:27.082Z,30.70
2018-07-20T14:52:00.962Z,30.60
2018-07-20T14:52:34.960Z,30.50
2018-07-20T14:53:08.723Z,30.40
2018-07-20T14:53:42.521Z,30.20
2018-07-20T14:54:16.424Z,30.20
2018-07-20T14:54:50.494Z,30.20
2018-07-20T14:55:24.336Z,30.20
2018-07-20T14:55:58.501Z,30.30
2018-07-20T14:56:32.476Z,30.40
2018-07-20T14:57:40.097Z,30.50
2018-07-20T14:58:13.975Z,30.60
2018-07-20T14:58:47.848Z,30.60
2018-07-20T14:59:21.736Z,30.70
2018-07-20T14:59:55.637Z,30.70
2018-07-20T15:00:29.873Z,30.70
2018-07-20T15:01:04.024Z,30.70
2018-07-20T15:01:37.810Z,30.60
2018-07-20T15:02:11.633Z,30.60
2018-07-20T15:02:45.497Z,30.60
2018-07-20T15:05:00.718Z,30.40
2018-07-20T15:05:34.534Z,30.40
2018-07-20T15:06:08.591Z,30.40
2018-07-20T15:06:42.413Z,30.50
2018-07-20T15:07:50.785Z,30.50
2018-07-20T15:08:24.545Z,30.60
2018-07-20T15:08:58.239Z,30.60
2018-07-20T15:09:32.066Z,30.60
2018-07-20T15:10:39.553Z,30.60
2018-07-20T15:11:13.429Z,30.60
2018-07-20T15:12:21.037Z,30.60
2018-07-20T15:12:55.036Z,30.40
2018-07-20T15:13:28.775Z,30.40
2018-07-20T15:14:02.624Z,30.30
2018-07-20T15:14:36.340Z,30.40
2018-07-20T15:15:10.124Z,30.30
2018-07-20T15:16:52.012Z,30.40
2018-07-20T15:17:25.872Z,30.40
2018-07-20T15:17:59.630Z,30.40
2018-07-20T15:18:33.676Z,30.40
2018-07-20T15:19:07.571Z,30.50
2018-07-20T15:19:41.423Z,30.40
2018-07-20T15:20:15.308Z,30.50
2018-07-20T15:21:22.948Z,30.50
2018-07-20T15:21:57.072Z,30.50
2018-07-20T15:22:31.112Z,30.60
2018-07-20T15:23:04.981Z,30.40
2018-07-20T15:23:38.932Z,30.40
2018-07-20T15:24:12.889Z,30.40
2018-07-20T15:24:46.959Z,30.40
2018-07-20T15:25:20.784Z,30.50
2018-07-20T15:26:28.483Z,30.50
2018-07-20T15:27:02.389Z,30.50
2018-07-20T15:27:37.407Z,30.50
2018-07-20T15:28:11.080Z,30.50
2018-07-20T15:29:18.799Z,30.50
2018-07-20T15:29:52.695Z,30.50
2018-07-20T15:30:26.711Z,30.50
2018-07-20T15:31:34.400Z,30.40
2018-07-20T15:32:42.070Z,30.30
2018-07-20T15:33:15.976Z,30.20
2018-07-20T15:33:50.787Z,30.20
2018-07-20T15:34:24.634Z,30.10
2018-07-20T15:35:32.250Z,30.10
2018-07-20T15:36:06.459Z,30.10
2018-07-20T15:36:41.375Z,30.10
2018-07-20T15:37:15.271Z,30.10
2018-07-20T15:37:49.808Z,30.10
2018-07-20T15:38:23.652Z,30.10
2018-07-20T15:38:57.685Z,30.10
2018-07-20T15:39:31.625Z,30.10
2018-07-20T15:40:39.501Z,30.10
2018-07-20T15:41:13.180Z,30.20
2018-07-20T15:41:47.004Z,30.20
2018-07-20T15:42:55.392Z,30.10
2018-07-20T15:43:29.334Z,30.00
2018-07-20T15:44:03.306Z,30.00
2018-07-20T15:44:37.223Z,30.00
2018-07-20T15:45:11.077Z,29.90
2018-07-20T15:45:51.971Z,29.90
2018-07-20T15:46:19.020Z,30.00
2018-07-20T15:46:53.488Z,30.00
2018-07-20T15:48:01.201Z,30.00
2018-07-20T15:48:35.436Z,30.10
2018-07-20T15:49:42.760Z,30.00
2018-07-20T15:50:16.592Z,30.00
2018-07-20T15:50:50.472Z,30.10
2018-07-20T15:51:31.581Z,30.10
2018-07-20T15:53:37.217Z,30.10
2018-07-20T15:53:40.665Z,30.10
2018-07-20T15:54:14.701Z,30.10
2018-07-20T15:54:48.631Z,30.10
2018-07-20T15:55:22.543Z,30.10
2018-07-20T15:55:56.715Z,30.10
2018-07-20T15:56:30.478Z,30.20
2018-07-20T15:57:04.819Z,30.10
2018-07-20T15:58:12.643Z,30.10
2018-07-20T15:58:46.427Z,30.00
2018-07-20T15:59:20.279Z,30.00
2018-07-20T15:59:54.425Z,30.00
2018-07-20T16:01:02.286Z,30.00
2018-07-20T16:02:09.749Z,30.00
2018-07-20T16:03:17.424Z,29.90
2018-07-20T16:04:59.340Z,29.90
2018-07-20T16:05:33.366Z,29.90
2018-07-20T16:06:07.025Z,29.90
2018-07-20T16:06:40.857Z,29.90
2018-07-20T16:07:14.715Z,29.90
2018-07-20T16:07:48.649Z,29.90
2018-07-20T16:08:58.172Z,29.90
2018-07-20T16:09:32.387Z,29.90
2018-07-20T16:10:06.351Z,29.90
2018-07-20T16:10:40.272Z,29.90
2018-07-20T16:11:14.021Z,29.90
2018-07-20T16:11:47.880Z,29.90
2018-07-20T16:12:21.844Z,29.80
2018-07-20T16:12:55.639Z,29.80
2018-07-20T16:14:03.504Z,29.70
2018-07-20T16:14:38.932Z,29.70
2018-07-20T16:15:13.184Z,29.70
2018-07-20T16:15:47.067Z,29.60
2018-07-20T16:16:20.900Z,29.60
2018-07-20T16:16:58.910Z,29.60
2018-07-20T16:17:32.988Z,29.60
2018-07-20T16:18:06.997Z,29.60
2018-07-20T16:18:40.865Z,29.60
2018-07-20T16:19:15.312Z,29.60
2018-07-20T16:19:49.153Z,29.60
2018-07-20T16:20:22.951Z,29.60
2018-07-20T16:20:56.712Z,29.60
2018-07-20T16:21:31.207Z,29.70
2018-07-20T16:22:05.613Z,29.60
2018-07-20T16:22:40.102Z,29.60
2018-07-20T16:23:13.967Z,29.60
2018-07-20T16:23:47.888Z,29.50
2018-07-20T16:24:56.041Z,29.50
2018-07-20T16:25:29.930Z,29.50
2018-07-20T16:26:04.131Z,29.50
2018-07-20T16:26:37.743Z,29.50
2018-07-20T16:27:45.084Z,29.50
2018-07-20T16:28:19.211Z,29.50
2018-07-20T16:28:53.192Z,29.50
2018-07-20T16:30:01.446Z,29.50
2018-07-20T16:30:35.600Z,29.40
2018-07-20T16:31:09.387Z,29.50
2018-07-20T16:31:43.457Z,29.40
2018-07-20T16:32:51.120Z,29.50
2018-07-20T16:33:58.787Z,29.50
2018-07-20T16:34:32.914Z,29.50
2018-07-20T16:35:07.255Z,29.50
2018-07-20T16:35:41.264Z,29.50
2018-07-20T16:36:15.104Z,29.50
2018-07-20T16:36:48.833Z,29.50
2018-07-20T16:37:23.694Z,29.50
2018-07-20T16:37:57.663Z,29.50
2018-07-20T16:38:32.037Z,29.50
2018-07-20T16:39:08.532Z,29.50
2018-07-20T16:39:42.549Z,29.50
2018-07-20T16:40:50.192Z,29.40
2018-07-20T16:41:24.196Z,29.40
2018-07-20T16:43:07.120Z,29.40
2018-07-20T16:43:41.528Z,29.40
2018-07-20T16:44:49.217Z,29.40
2018-07-20T16:45:56.863Z,29.40
2018-07-20T16:46:30.764Z,29.40
2018-07-20T16:47:04.547Z,29.40
2018-07-20T16:47:39.621Z,29.40
2018-07-20T16:48:13.459Z,29.40
2018-07-20T16:48:47.480Z,29.30
2018-07-20T16:49:21.280Z,29.30
2018-07-20T16:49:55.308Z,29.40
2018-07-20T16:50:29.162Z,29.40
2018-07-20T16:51:03.036Z,29.40
2018-07-20T16:52:11.818Z,29.30
2018-07-20T16:52:45.612Z,29.40
2018-07-20T16:53:20.101Z,29.40
2018-07-20T16:53:53.737Z,29.40
2018-07-20T16:54:27.768Z,29.40
2018-07-20T16:55:02.644Z,29.40
2018-07-20T16:55:36.700Z,29.30
2018-07-20T16:56:10.705Z,29.30
2018-07-20T16:57:18.223Z,29.30
2018-07-20T16:57:52.128Z,29.30
2018-07-20T16:58:26.036Z,29.30
2018-07-20T16:58:59.969Z,29.30
2018-07-20T17:00:08.163Z,29.30
2018-07-20T17:00:42.019Z,29.20
2018-07-20T17:01:16.023Z,29.20
2018-07-20T17:01:49.762Z,29.20
2018-07-20T17:02:23.584Z,29.10
2018-07-20T17:02:57.446Z,29.10
2018-07-20T17:03:31.216Z,29.10
2018-07-20T17:04:04.976Z,29.10
2018-07-20T17:04:38.900Z,29.00
2018-07-20T17:05:12.862Z,29.00
2018-07-20T17:05:46.755Z,29.00
2018-07-20T17:06:20.426Z,29.00
2018-07-20T17:06:54.560Z,29.00
2018-07-20T17:07:28.791Z,29.00
2018-07-20T17:08:02.810Z,29.00
2018-07-20T17:08:36.849Z,28.90
2018-07-20T17:09:11.889Z,28.90
2018-07-20T17:09:45.860Z,28.90
2018-07-20T17:10:19.673Z,28.90
2018-07-20T17:10:53.677Z,28.90
2018-07-20T17:11:27.600Z,28.80
2018-07-20T17:12:35.865Z,28.80
2018-07-20T17:13:10.368Z,28.80
2018-07-20T17:13:44.868Z,28.80
2018-07-20T17:14:18.580Z,28.80
2018-07-20T17:14:52.463Z,28.70
2018-07-20T17:15:26.310Z,28.70
2018-07-20T17:16:00.197Z,28.70
2018-07-20T17:16:34.016Z,28.70
2018-07-20T17:17:41.508Z,28.60
2018-07-20T17:18:15.398Z,28.70
2018-07-20T17:18:49.255Z,28.60
2018-07-20T17:19:22.989Z,28.60
2018-07-20T17:20:30.377Z,28.60
2018-07-20T17:21:04.248Z,28.60
2018-07-20T17:21:38.166Z,28.50
2018-07-20T17:22:12.160Z,28.50
2018-07-20T17:23:19.784Z,28.50
2018-07-20T17:25:00.652Z,28.40
2018-07-20T17:25:34.705Z,28.40
2018-07-20T17:26:08.538Z,28.40
2018-07-20T17:28:23.938Z,28.30
2018-07-20T17:28:57.743Z,28.30
2018-07-20T17:30:08.126Z,28.20
2018-07-20T17:30:42.212Z,28.20
2018-07-20T17:31:16.564Z,28.20
2018-07-20T17:31:50.344Z,28.20
2018-07-20T17:32:24.528Z,28.10
2018-07-20T17:34:05.577Z,28.10
2018-07-20T17:34:39.591Z,28.00
2018-07-20T17:35:13.697Z,28.00
2018-07-20T17:35:47.319Z,28.00
2018-07-20T17:36:21.271Z,28.00
2018-07-20T17:36:55.299Z,28.00
2018-07-20T17:38:03.335Z,27.90
2018-07-20T17:38:37.151Z,27.90
2018-07-20T17:39:12.214Z,27.90
2018-07-20T17:39:45.844Z,27.90
2018-07-20T17:40:19.822Z,27.90
2018-07-20T17:40:53.578Z,27.80
2018-07-20T17:41:27.412Z,27.80
2018-07-20T17:42:01.297Z,27.80
2018-07-20T17:42:35.323Z,27.80
2018-07-20T17:43:09.033Z,27.70
2018-07-20T17:43:43.104Z,27.80
2018-07-20T17:44:50.828Z,27.80
2018-07-20T17:45:24.604Z,27.70
2018-07-20T17:45:58.339Z,27.70
2018-07-20T17:46:32.396Z,27.70
2018-07-20T17:47:06.299Z,27.70
2018-07-20T17:47:40.062Z,27.60
2018-07-20T17:48:14.023Z,27.70
2018-07-20T17:48:48.320Z,27.70
2018-07-20T17:49:22.071Z,27.60
2018-07-20T17:49:55.833Z,27.60
2018-07-20T17:50:29.539Z,27.60
2018-07-20T17:51:03.472Z,27.60
2018-07-20T17:51:37.348Z,27.60
2018-07-20T17:52:11.260Z,27.60
2018-07-20T17:52:45.692Z,27.60
2018-07-20T17:53:19.539Z,27.60
2018-07-20T17:53:53.264Z,27.60
2018-07-20T17:54:26.985Z,27.50
2018-07-20T17:55:00.789Z,27.60
2018-07-20T17:56:07.983Z,27.60
2018-07-20T17:56:41.764Z,27.60
2018-07-20T17:57:15.719Z,27.60
2018-07-20T17:57:50.513Z,27.60
2018-07-20T17:58:24.864Z,27.60
2018-07-20T17:58:58.553Z,27.60
2018-07-20T17:59:32.365Z,27.50
2018-07-20T18:00:06.369Z,27.60
2018-07-20T18:00:40.312Z,27.60
2018-07-20T18:01:14.174Z,27.60
2018-07-20T18:01:48.033Z,27.50
2018-07-20T18:02:22.265Z,27.50
2018-07-20T18:03:29.923Z,27.50
2018-07-20T18:04:03.892Z,27.50
2018-07-20T18:04:37.578Z,27.40
2018-07-20T18:05:11.433Z,27.40
2018-07-20T18:05:45.092Z,27.40
2018-07-20T18:06:19.094Z,27.40
2018-07-20T18:06:52.999Z,27.40
2018-07-20T18:07:26.953Z,27.30
2018-07-20T18:08:01.335Z,27.30
2018-07-20T18:08:35.222Z,27.30
2018-07-20T18:09:09.914Z,27.30
2018-07-20T18:09:43.712Z,27.30
2018-07-20T18:10:17.521Z,27.30
2018-07-20T18:10:51.500Z,27.30
2018-07-20T18:11:25.283Z,27.20
2018-07-20T18:11:59.148Z,27.20
2018-07-20T18:12:32.956Z,27.20
2018-07-20T18:13:06.927Z,27.20
2018-07-20T18:14:15.176Z,27.10
2018-07-20T18:14:49.183Z,27.10
2018-07-20T18:15:56.792Z,27.10
2018-07-20T18:16:30.546Z,27.10
2018-07-20T18:17:04.887Z,27.10
2018-07-20T18:17:38.875Z,27.00
2018-07-20T18:18:12.759Z,27.00
2018-07-20T18:18:46.547Z,27.00
2018-07-20T18:19:20.411Z,27.10
2018-07-20T18:19:54.151Z,27.10
2018-07-20T18:20:28.011Z,27.10
2018-07-20T18:21:02.015Z,27.10
2018-07-20T18:21:35.782Z,27.10
2018-07-20T18:22:09.701Z,27.10
2018-07-20T18:22:43.595Z,27.10
2018-07-20T18:23:17.414Z,27.10
2018-07-20T18:24:58.683Z,27.10
2018-07-20T18:25:32.541Z,27.00
2018-07-20T18:26:07.814Z,27.00
2018-07-20T18:26:41.895Z,27.00
2018-07-20T18:27:15.943Z,27.00
2018-07-20T18:27:49.756Z,27.00
2018-07-20T18:28:23.567Z,27.00
2018-07-20T18:28:57.770Z,27.00
2018-07-20T18:29:31.864Z,27.00
2018-07-20T18:30:06.017Z,27.00
2018-07-20T18:30:39.696Z,26.90
2018-07-20T18:31:13.420Z,26.90
2018-07-20T18:31:47.462Z,26.90
2018-07-20T18:32:21.490Z,26.90
2018-07-20T18:32:55.548Z,26.90
2018-07-20T18:33:29.536Z,26.90
2018-07-20T18:34:03.381Z,26.80
2018-07-20T18:34:37.364Z,26.80
2018-07-20T18:35:11.188Z,26.80
2018-07-20T18:35:45.124Z,26.80
2018-07-20T18:36:18.956Z,26.80
2018-07-20T18:36:53.155Z,26.80
2018-07-20T18:38:00.857Z,26.80
2018-07-20T18:39:43.719Z,26.80
2018-07-20T18:40:17.810Z,26.80
2018-07-20T18:40:51.951Z,26.70
2018-07-20T18:41:25.796Z,26.70
2018-07-20T18:41:59.641Z,26.70
2018-07-20T18:42:33.603Z,26.60
2018-07-20T18:43:07.371Z,26.60
2018-07-20T18:43:41.157Z,26.60
2018-07-20T18:44:15.148Z,26.50
2018-07-20T18:44:49.850Z,26.50
2018-07-20T18:45:26.725Z,26.50
2018-07-20T18:46:00.563Z,26.60
2018-07-20T18:46:35.443Z,26.60
2018-07-20T18:47:09.268Z,26.60
2018-07-20T18:47:42.988Z,26.50
2018-07-20T18:48:16.965Z,26.50
2018-07-20T18:48:51.158Z,26.50
2018-07-20T18:49:25.035Z,26.50
2018-07-20T18:49:58.945Z,26.50
2018-07-20T18:50:33.095Z,26.40
2018-07-20T18:51:41.569Z,26.40
2018-07-20T18:52:16.675Z,26.40
2018-07-20T18:52:50.439Z,26.40
2018-07-20T18:53:25.031Z,26.40
2018-07-20T18:53:59.172Z,26.30
2018-07-20T18:54:33.138Z,26.30
2018-07-20T18:55:07.181Z,26.30
2018-07-20T18:55:40.992Z,26.30
2018-07-20T18:56:14.830Z,26.30
2018-07-20T18:56:49.259Z,26.30
2018-07-20T18:57:23.184Z,26.30
2018-07-20T18:58:31.032Z,26.30
2018-07-20T18:59:04.890Z,26.30
2018-07-20T18:59:39.196Z,26.30
2018-07-20T19:00:13.059Z,26.30
2018-07-20T19:01:20.593Z,26.20
2018-07-20T19:01:54.500Z,26.20
2018-07-20T19:02:28.239Z,26.20
2018-07-20T19:03:35.777Z,26.20
2018-07-20T19:04:09.576Z,26.20
2018-07-20T19:04:43.516Z,26.20
2018-07-20T19:05:17.559Z,26.20
2018-07-20T19:05:51.497Z,26.20
2018-07-20T19:06:25.419Z,26.20
2018-07-20T19:06:59.219Z,26.20
2018-07-20T19:07:33.024Z,26.20
2018-07-20T19:08:06.921Z,26.20
2018-07-20T19:08:40.860Z,26.20
2018-07-20T19:09:14.714Z,26.10
2018-07-20T19:09:48.615Z,26.20
2018-07-20T19:10:22.923Z,26.10
2018-07-20T19:10:56.857Z,26.10
2018-07-20T19:11:30.823Z,26.10
2018-07-20T19:12:04.817Z,26.00
2018-07-20T19:13:12.578Z,26.00
2018-07-20T19:13:46.284Z,25.90
2018-07-20T19:14:53.967Z,25.90
2018-07-20T19:15:27.877Z,25.90
2018-07-20T19:16:35.905Z,25.70
2018-07-20T19:17:10.034Z,25.70
2018-07-20T19:18:17.584Z,25.70
2018-07-20T19:19:25.063Z,25.70
2018-07-20T19:19:58.872Z,25.70
2018-07-20T19:20:32.731Z,25.70
2018-07-20T19:21:06.577Z,25.70
2018-07-20T19:21:40.519Z,25.60
2018-07-20T19:22:14.400Z,25.60
2018-07-20T19:22:48.479Z,25.60
2018-07-20T19:24:02.697Z,25.60
2018-07-20T19:24:36.560Z,25.50
2018-07-20T19:25:10.420Z,25.50
2018-07-20T19:25:44.127Z,25.50
2018-07-20T19:26:18.116Z,25.50
2018-07-20T19:26:52.047Z,25.50
2018-07-20T19:27:25.995Z,25.50
2018-07-20T19:27:59.905Z,25.50
2018-07-20T19:28:34.504Z,25.50
2018-07-20T19:29:08.478Z,25.40
2018-07-20T19:29:42.339Z,25.40
2018-07-20T19:30:49.976Z,25.40
2018-07-20T19:31:23.984Z,25.40
2018-07-20T19:31:57.875Z,25.40
2018-07-20T19:32:32.094Z,25.40
2018-07-20T19:33:39.622Z,25.30
2018-07-20T19:34:13.307Z,25.30
2018-07-20T19:34:47.155Z,25.30
2018-07-20T19:35:20.926Z,25.40
2018-07-20T19:35:54.875Z,25.40
2018-07-20T19:36:29.252Z,25.30
2018-07-20T19:37:05.125Z,25.30
2018-07-20T19:37:39.201Z,25.40
2018-07-20T19:38:13.006Z,25.40
2018-07-20T19:38:46.871Z,25.30
2018-07-20T19:39:20.983Z,25.30
2018-07-20T19:39:54.837Z,25.30
2018-07-20T19:40:28.997Z,25.30
2018-07-20T19:41:02.965Z,25.30
2018-07-20T19:41:37.068Z,25.30
2018-07-20T19:42:11.146Z,25.30
2018-07-20T19:42:44.817Z,25.30
2018-07-20T19:43:18.616Z,25.30
2018-07-20T19:43:52.483Z,25.30
2018-07-20T19:44:26.529Z,25.30
2018-07-20T19:45:00.345Z,25.30
2018-07-20T19:46:08.199Z,25.20
2018-07-20T19:46:42.219Z,25.20
2018-07-20T19:47:15.952Z,25.20
2018-07-20T19:47:49.750Z,25.20
2018-07-20T19:48:57.225Z,25.20
2018-07-20T19:49:31.181Z,25.20
2018-07-20T19:50:05.369Z,25.20
2018-07-20T19:51:13.123Z,25.20
2018-07-20T19:51:47.001Z,25.10
2018-07-20T19:52:20.756Z,25.10
2018-07-20T19:52:54.722Z,25.10
2018-07-20T19:53:28.843Z,25.10
2018-07-20T19:54:02.484Z,25.10
2018-07-20T19:54:36.752Z,25.00
2018-07-20T19:55:11.219Z,25.00
2018-07-20T19:55:45.449Z,25.00
2018-07-20T19:57:26.733Z,24.90
2018-07-20T19:58:01.476Z,24.90
2018-07-20T19:58:35.332Z,24.90
2018-07-20T19:59:09.262Z,24.90
2018-07-20T19:59:43.057Z,24.90
2018-07-20T20:00:50.397Z,24.80
2018-07-20T20:01:24.450Z,24.90
2018-07-20T20:02:32.136Z,24.90
2018-07-20T20:03:07.008Z,24.90
2018-07-20T20:04:14.894Z,24.90
2018-07-20T20:04:48.784Z,24.90
2018-07-20T20:05:22.765Z,24.90
2018-07-20T20:05:56.727Z,24.90
2018-07-20T20:07:04.997Z,24.80
2018-07-20T20:07:39.122Z,24.80
2018-07-20T20:08:14.121Z,24.80
2018-07-20T20:08:47.972Z,24.80
2018-07-20T20:09:21.743Z,24.70
2018-07-20T20:09:55.661Z,24.70
2018-07-20T20:10:36.434Z,24.70
2018-07-20T20:11:10.342Z,24.70
2018-07-20T20:11:44.109Z,24.70
2018-07-20T20:12:17.833Z,24.70
2018-07-20T20:12:51.754Z,24.70
2018-07-20T20:13:25.916Z,24.70
2018-07-20T20:13:59.895Z,24.70
2018-07-20T20:14:33.664Z,24.70
2018-07-20T20:15:08.309Z,24.70
2018-07-20T20:16:16.411Z,24.70
2018-07-20T20:16:50.085Z,24.70
2018-07-20T20:17:23.855Z,24.70
2018-07-20T20:17:58.002Z,24.60
2018-07-20T20:18:31.862Z,24.60
2018-07-20T20:19:06.112Z,24.60
2018-07-20T20:20:14.075Z,24.50
2018-07-20T20:20:47.836Z,24.50
2018-07-20T20:22:29.353Z,24.50
2018-07-20T20:23:03.225Z,24.50
2018-07-20T20:23:39.055Z,24.50
2018-07-20T20:24:14.080Z,24.50
2018-07-20T20:24:48.589Z,24.50
2018-07-20T20:25:22.516Z,24.50
2018-07-20T20:25:56.395Z,24.40
2018-07-20T20:26:30.260Z,24.50
2018-07-20T20:27:04.207Z,24.50
2018-07-20T20:27:38.107Z,24.40
2018-07-20T20:28:11.957Z,24.50
2018-07-20T20:28:45.889Z,24.40
2018-07-20T20:29:19.677Z,24.50
2018-07-20T20:29:53.640Z,24.40
2018-07-20T20:30:27.592Z,24.50
2018-07-20T20:31:01.411Z,24.40
2018-07-20T20:31:35.123Z,24.40
2018-07-20T20:32:09.262Z,24.40
2018-07-20T20:32:43.128Z,24.40
2018-07-20T20:33:50.708Z,24.30
2018-07-20T20:34:24.522Z,24.40
2018-07-20T20:34:58.532Z,24.40
2018-07-20T20:35:32.414Z,24.40
2018-07-20T20:36:06.300Z,24.40
2018-07-20T20:36:40.280Z,24.40
2018-07-20T20:37:14.167Z,24.40
2018-07-20T20:37:48.190Z,24.40
2018-07-20T20:38:21.941Z,24.40
2018-07-20T20:38:56.104Z,24.40
2018-07-20T20:39:30.326Z,24.40
2018-07-20T20:40:05.555Z,24.40
2018-07-20T20:40:39.275Z,24.30
2018-07-20T20:41:13.193Z,24.30
2018-07-20T20:41:46.847Z,24.30
2018-07-20T20:42:20.600Z,24.20
2018-07-20T20:43:28.133Z,24.30
2018-07-20T20:44:01.873Z,24.30
2018-07-20T20:44:36.659Z,24.30
2018-07-20T20:45:10.312Z,24.30
2018-07-20T20:45:44.109Z,24.30
2018-07-20T20:46:18.099Z,24.30
2018-07-20T20:46:51.960Z,24.30
2018-07-20T20:47:25.847Z,24.30
2018-07-20T20:48:33.582Z,24.30
2018-07-20T20:49:07.513Z,24.20
2018-07-20T20:49:41.396Z,24.20
2018-07-20T20:50:15.248Z,24.20
2018-07-20T20:50:49.169Z,24.30
2018-07-20T20:51:23.135Z,24.20
2018-07-20T20:51:57.054Z,24.20
2018-07-20T20:53:05.161Z,24.20
2018-07-20T20:53:38.968Z,24.10
2018-07-20T20:54:13.078Z,24.10
2018-07-20T20:54:47.008Z,24.10
2018-07-20T20:55:20.773Z,24.10
2018-07-20T20:55:54.509Z,24.10
2018-07-20T20:56:28.376Z,24.10
2018-07-20T20:57:02.339Z,24.10
2018-07-20T20:57:36.224Z,24.10
2018-07-20T20:58:10.183Z,24.10
2018-07-20T20:58:44.423Z,24.10
2018-07-20T20:59:18.474Z,24.00
2018-07-20T20:59:52.226Z,24.00
2018-07-20T21:00:26.120Z,24.00
2018-07-20T21:00:59.892Z,24.00
2018-07-20T21:01:34.055Z,24.00
2018-07-20T21:02:41.702Z,24.00
2018-07-20T21:03:15.482Z,24.00
2018-07-20T21:03:49.469Z,24.00
2018-07-20T21:04:23.138Z,24.00
2018-07-20T21:04:56.997Z,24.00
2018-07-20T21:05:30.780Z,24.00
2018-07-20T21:06:05.143Z,24.00
2018-07-20T21:06:38.843Z,24.00
2018-07-20T21:07:12.904Z,23.90
2018-07-20T21:07:46.656Z,23.90
2018-07-20T21:08:20.556Z,23.90
2018-07-20T21:08:54.717Z,23.90
2018-07-20T21:09:28.660Z,23.90
2018-07-20T21:10:02.740Z,23.80
2018-07-20T21:10:36.564Z,23.90
2018-07-20T21:11:10.515Z,23.80
2018-07-20T21:12:18.495Z,23.90
2018-07-20T21:12:52.611Z,23.90
2018-07-20T21:13:26.421Z,23.90
2018-07-20T21:14:00.254Z,23.90
2018-07-20T21:14:34.406Z,23.90
2018-07-20T21:15:08.020Z,23.80
2018-07-20T21:15:42.076Z,23.80
2018-07-20T21:16:15.877Z,23.90
2018-07-20T21:16:49.799Z,23.80
2018-07-20T21:17:23.636Z,23.80
2018-07-20T21:17:57.963Z,23.80
2018-07-20T21:18:31.772Z,23.80
2018-07-20T21:19:06.028Z,23.80
2018-07-20T21:19:39.869Z,23.90
2018-07-20T21:20:13.719Z,23.80
2018-07-20T21:20:47.474Z,23.80
2018-07-20T21:21:21.523Z,23.80
2018-07-20T21:21:55.387Z,23.80
2018-07-20T21:22:29.320Z,23.80
2018-07-20T21:23:03.375Z,23.80
2018-07-20T21:23:37.264Z,23.70
2018-07-20T21:24:11.221Z,23.70
2018-07-20T21:24:44.800Z,23.70
2018-07-20T21:25:18.695Z,23.70
2018-07-20T21:25:53.133Z,23.70
2018-07-20T21:26:26.996Z,23.70
2018-07-20T21:27:01.048Z,23.70
2018-07-20T21:28:08.847Z,23.70
2018-07-20T21:28:42.527Z,23.70
2018-07-20T21:29:16.295Z,23.70
2018-07-20T21:29:49.959Z,23.70
2018-07-20T21:30:24.353Z,23.70
2018-07-20T21:30:58.144Z,23.70
2018-07-20T21:31:32.148Z,23.70
2018-07-20T21:32:06.364Z,23.60
2018-07-20T21:33:13.717Z,23.60
2018-07-20T21:33:47.511Z,23.60
2018-07-20T21:34:55.105Z,23.60
2018-07-20T21:35:28.805Z,23.60
2018-07-20T21:36:36.343Z,23.70
2018-07-20T21:37:10.081Z,23.60
2018-07-20T21:37:43.944Z,23.70
2018-07-20T21:38:17.956Z,23.60
2018-07-20T21:38:51.615Z,23.70
2018-07-20T21:39:25.345Z,23.60
2018-07-20T21:40:32.826Z,23.60
2018-07-20T21:41:06.680Z,23.70
2018-07-20T21:41:41.119Z,23.60
2018-07-20T21:42:15.023Z,23.60
2018-07-20T21:42:48.809Z,23.60
2018-07-20T21:43:23.023Z,23.60
2018-07-20T21:43:56.769Z,23.60
2018-07-20T21:45:04.686Z,23.60
2018-07-20T21:45:38.584Z,23.60
2018-07-20T21:46:12.456Z,23.60
2018-07-20T21:46:46.425Z,23.60
2018-07-20T21:47:20.238Z,23.60
2018-07-20T21:48:27.650Z,23.50
2018-07-20T21:49:01.493Z,23.50
2018-07-20T21:49:35.489Z,23.50
2018-07-20T21:50:09.739Z,23.40
2018-07-20T21:50:43.588Z,23.40
2018-07-20T21:51:17.335Z,23.50
2018-07-20T21:51:51.226Z,23.40
2018-07-20T21:52:58.992Z,23.40
2018-07-20T21:53:32.736Z,23.40
2018-07-20T21:54:06.562Z,23.40
2018-07-20T21:54:40.290Z,23.40
2018-07-20T21:55:13.967Z,23.40
2018-07-20T21:55:47.607Z,23.40
2018-07-20T21:56:21.709Z,23.40
2018-07-20T21:57:29.255Z,23.40
2018-07-20T21:58:03.052Z,23.40
2018-07-20T21:58:36.864Z,23.40
2018-07-20T21:59:44.574Z,23.40
2018-07-20T22:00:19.056Z,23.40
2018-07-20T22:00:53.315Z,23.40
2018-07-20T22:01:27.326Z,23.40
2018-07-20T22:02:01.216Z,23.40
2018-07-20T22:02:34.923Z,23.30
2018-07-20T22:03:42.431Z,23.30
2018-07-20T22:04:16.294Z,23.30
2018-07-20T22:04:50.191Z,23.30
2018-07-20T22:05:23.992Z,23.30
2018-07-20T22:05:57.854Z,23.30
2018-07-20T22:06:31.544Z,23.30
2018-07-20T22:07:05.318Z,23.30
2018-07-20T22:07:39.105Z,23.30
2018-07-20T22:08:47.016Z,23.30
2018-07-20T22:10:29.059Z,23.30
2018-07-20T22:11:03.064Z,23.30
2018-07-20T22:11:36.797Z,23.30
2018-07-20T22:12:10.942Z,23.30
2018-07-20T22:13:18.571Z,23.30
2018-07-20T22:13:52.664Z,23.30
2018-07-20T22:15:00.245Z,23.30
2018-07-20T22:15:34.181Z,23.30
2018-07-20T22:16:07.947Z,23.30
2018-07-20T22:16:41.716Z,23.30
2018-07-20T22:17:15.559Z,23.30
2018-07-20T22:18:23.395Z,23.30
2018-07-20T22:18:57.329Z,23.20
2018-07-20T22:19:31.094Z,23.20
2018-07-20T22:20:06.363Z,23.20
2018-07-20T22:20:40.121Z,23.20
2018-07-20T22:21:14.063Z,23.20
2018-07-20T22:21:47.809Z,23.20
2018-07-20T22:22:21.463Z,23.20
2018-07-20T22:22:55.175Z,23.20
2018-07-20T22:23:29.411Z,23.20
2018-07-20T22:24:03.266Z,23.20
2018-07-20T22:24:36.974Z,23.20
2018-07-20T22:25:11.307Z,23.20
2018-07-20T22:25:45.079Z,23.20
2018-07-20T22:26:18.876Z,23.20
2018-07-20T22:26:52.660Z,23.20
2018-07-20T22:27:26.532Z,23.20
2018-07-20T22:28:00.325Z,23.20
2018-07-20T22:28:34.265Z,23.20
2018-07-20T22:29:08.111Z,23.20
2018-07-20T22:30:15.652Z,23.20
2018-07-20T22:31:23.414Z,23.20
2018-07-20T22:31:57.308Z,23.20
2018-07-20T22:32:31.197Z,23.20
2018-07-20T22:33:05.208Z,23.20
2018-07-20T22:33:38.992Z,23.20
2018-07-20T22:34:13.063Z,23.20
2018-07-20T22:34:46.759Z,23.20
2018-07-20T22:35:20.580Z,23.20
2018-07-20T22:35:54.267Z,23.20
2018-07-20T22:37:02.267Z,23.20
